Main page
METAR-TAF:

METAR-TAF

Airports :

De Kooy Airfield

Den Helder, Netherlands

latitude: 52-55N, longitude: 004-47E, elevation: 0 m

Current weather observation

The report was made 21 minutes ago, at 04:25 UTC
Wind 10 kt from the West
Temperature 12°C
Humidity 82%
Pressure 1007 hPa
Visibility 10 km or more
no clouds below 1500 m and no cumulonimbus

METAR: EHKD 270425Z AUTO 27011KT 9999 SCT320 12/09 Q1007 BLU 26010KT CAVOK

Time: 06:46 (04:46 UTC)

Forecast

The report was made 3 hours and 59 minutes ago, at 00:47 UTC
Forecast valid from 27 at 01 UTC to 27 at 13 UTC
Wind 10 kt from the West/Northwest
Visibility 10 km or more
Scattered clouds at a height of 4000 ft
Becoming
from 27 at 06 UTC to 27 at 09 UTC
Wind 12 kt from the West with gusts up to 24 kt
Becoming
from 27 at 11 UTC to 27 at 13 UTC
Wind 12 kt from the Southwest with gusts up to 24 kt

TAF: EHKD 270047Z 2701/2713 29010KT 9999 SCT040 BECMG 2706/2709 26012G24KT BECMG 2711/2713 23012G24KT

Weather observations and forecasts of more than 4000 airports (METAR and TAF reports).

The available stations are represented by yellow and red dots on the map.

Hover mouse over dot to see the name of the station.

Then click to see weather observations and forecasts.

To change the map : click on the green buttons with a black cross to zoom in, on the green button with a dash to zoom out, or on the green arrows for adjacent maps.


METAR-TAF: